This is the latest recevied weather packets stored in our database for station/object CE4ERM-13. If no packets are shown the sender has not sent any weather packets the latest 10 day(s).
| Time | Temp. | Humidity | Pressure | Rain* | Wind** | Luminosity | Snow |
|---|---|---|---|---|---|---|---|
| 1777625334 | 18.89° C | 45% | 1022.1 hPa | - | - | - | - |
| 1777625231 | 18.89° C | 57% | 1020 hPa | - | - | - | - |
| 1777624734 | 19.44° C | 45% | 1022.2 hPa | - | - | - | - |
| 1777622932 | 19.44° C | 46% | 1020.7 hPa | - | - | - | - |
| 1777622230 | 18.33° C | 59% | 1017.9 hPa | - | - | - | - |
| 1777621732 | 19.44° C | 45% | 1021 hPa | - | - | - | - |
| 1777621133 | 19.44° C | 45% | 1020.4 hPa | - | - | - | - |
| 1777620533 | 19.44° C | 46% | 1018.4 hPa | - | - | - | - |
| 1777619333 | 19.44° C | 45% | 1021.6 hPa | - | - | - | - |
| 1777618732 | 19.44° C | 45% | 1023.3 hPa | - | - | - | - |
| 1777618132 | 19.44° C | 45% | 1020.3 hPa | - | - | - | - |
| 1777617532 | 19.44° C | 45% | 1021.6 hPa | - | - | - | - |
| 1777616931 | 19.44° C | 45% | 1019.7 hPa | - | - | - | - |
| 1777615730 | 19.44° C | 45% | 1022.6 hPa | - | - | - | - |
| 1777611425 | 20° C | 56% | 1019.3 hPa | - | - | - | - |
| 1777610824 | 20° C | 56% | 1019.3 hPa | - | - | - | - |
| 1777610329 | 20° C | 45% | 1020.6 hPa | - | - | - | - |
| 1777609024 | 19.44° C | 57% | 1019.6 hPa | - | - | - | - |
| 1777607927 | 20.56° C | 45% | 1019.4 hPa | - | - | - | - |
| 1777607823 | 19.44° C | 58% | 1020.5 hPa | - | - | - | - |
| 1777607223 | 18.89° C | 60% | 1019.5 hPa | - | - | - | - |
| 1777606726 | 20.56° C | 45% | 1019.8 hPa | - | - | - | - |
| 1777606622 | 18.89° C | 59% | 1019.2 hPa | - | - | - | - |
| 1777606022 | 18.33° C | 61% | 1019.5 hPa | - | - | - | - |
| 1777605421 | 18.89° C | 59% | 1020.3 hPa | - | - | - | - |
* Rain since midnight (hover to see other rain measurements)
** Current wind speed in m/s (hover to see current wind gust speed)